Time;durP1;ratioP1;P1;durP2;ratioP2;P2;SDS_P1;SDS_P2;PMS_P1;PMS_P2;Temp;Humidity;BMP_temperature;BMP_pressure;BME280_temperature;BME280_humidity;BME280_pressure;Samples;Min_cycle;Max_cycle;Signal;HPM_P1;HPM_P2
2024/01/12 00:00:09;;;;;;;;;18.25;18.25;;;;;1.09;100.00;103256.19;5100685;27;45315;-73
2024/01/12 00:02:34;;;;;;;;;21.50;16.50;;;;;1.08;100.00;103254.44;5110686;27;45333;-73
2024/01/12 00:04:59;;;;;;;;;26.00;21.00;;;;;0.85;100.00;103210.31;5095271;27;45451;-73
2024/01/12 00:07:24;;;;;;;;;33.25;23.50;;;;;1.00;100.00;103244.66;5100936;27;48184;-73
2024/01/12 00:09:50;;;;;;;;;29.50;23.25;;;;;1.02;100.00;103250.78;5096566;27;45415;-73
2024/01/12 00:12:15;;;;;;;;;27.00;26.00;;;;;1.01;100.00;103255.97;5101815;27;45254;-73
2024/01/12 00:14:42;;;;;;;;;28.75;24.75;;;;;0.99;100.00;103248.09;5100037;27;45246;-73
2024/01/12 00:17:07;;;;;;;;;18.00;17.25;;;;;0.92;100.00;103240.91;5082423;27;46472;-73
2024/01/12 00:19:33;;;;;;;;;34.50;22.50;;;;;0.93;100.00;103247.91;5082189;27;45382;-73
2024/01/12 00:21:58;;;;;;;;;21.25;18.00;;;;;0.94;100.00;103257.50;5082637;27;45462;-73
2024/01/12 00:24:23;;;;;;;;;19.00;17.50;;;;;0.89;100.00;103251.25;5092014;27;45381;-73
2024/01/12 00:26:49;;;;;;;;;28.50;22.25;;;;;0.91;100.00;103264.34;5079899;27;47382;-73
2024/01/12 00:29:15;;;;;;;;;19.00;18.75;;;;;0.90;100.00;103260.84;5084872;27;45376;-73
2024/01/12 00:31:40;;;;;;;;;26.75;21.25;;;;;0.80;100.00;103248.38;5089995;27;45503;-73
2024/01/12 00:34:06;;;;;;;;;21.75;18.00;;;;;0.81;100.00;103251.84;5101514;27;45428;-73
2024/01/12 00:36:31;;;;;;;;;21.00;19.75;;;;;0.83;100.00;103242.34;5084052;27;45299;-72
2024/01/12 00:38:56;;;;;;;;;25.00;20.25;;;;;0.90;100.00;103265.16;5085143;27;45230;-73
2024/01/12 00:41:23;;;;;;;;;26.75;20.75;;;;;0.64;100.00;103227.88;5084103;27;45314;-74
2024/01/12 00:43:48;;;;;;;;;28.75;24.25;;;;;0.70;100.00;103227.19;5084883;27;45239;-73
2024/01/12 00:46:14;;;;;;;;;28.00;24.75;;;;;0.99;100.00;103263.72;5096942;27;47394;-73
2024/01/12 00:48:39;;;;;;;;;27.25;24.25;;;;;0.93;100.00;103249.63;5087243;27;45313;-73
2024/01/12 00:51:05;;;;;;;;;20.25;18.00;;;;;0.81;100.00;103220.59;5095915;27;45487;-73
2024/01/12 00:53:30;;;;;;;;;16.75;11.75;;;;;1.09;100.00;103267.50;5089299;27;45227;-73
2024/01/12 00:55:55;;;;;;;;;21.50;20.75;;;;;0.85;100.00;103212.91;5082866;27;45274;-73
2024/01/12 00:58:21;;;;;;;;;25.75;17.50;;;;;1.15;100.00;103251.16;5084029;27;45371;-73
2024/01/12 01:00:46;;;;;;;;;24.25;21.50;;;;;1.13;100.00;103239.81;5081506;27;45273;-73
2024/01/12 01:03:11;;;;;;;;;21.25;17.75;;;;;1.18;100.00;103239.13;5084461;27;45266;-73
2024/01/12 01:05:37;;;;;;;;;27.50;22.00;;;;;1.19;100.00;103225.25;5079059;27;47676;-73
2024/01/12 01:08:02;;;;;;;;;15.00;15.00;;;;;1.29;100.00;103231.63;5082236;27;45261;-73
2024/01/12 01:10:28;;;;;;;;;21.25;16.00;;;;;1.07;100.00;103182.31;5087597;27;45253;-73
2024/01/12 01:12:53;;;;;;;;;21.75;19.50;;;;;1.23;100.00;103195.84;5084358;27;45209;-73
2024/01/12 01:15:19;;;;;;;;;20.75;14.00;;;;;1.47;100.00;103230.44;5082487;27;48227;-73
2024/01/12 01:17:45;;;;;;;;;18.50;16.25;;;;;1.46;100.00;103214.75;5084519;27;45260;-73
2024/01/12 01:20:11;;;;;;;;;18.75;16.50;;;;;1.55;100.00;103220.22;5086624;27;45272;-73
2024/01/12 01:22:37;;;;;;;;;14.50;13.00;;;;;1.47;100.00;103206.97;5083911;27;45478;-73
2024/01/12 01:25:03;;;;;;;;;15.50;15.00;;;;;1.61;100.00;103214.28;5085797;27;47023;-73
2024/01/12 01:27:28;;;;;;;;;16.00;11.25;;;;;1.63;100.00;103212.63;5098824;27;45397;-73
2024/01/12 01:29:53;;;;;;;;;16.00;13.75;;;;;1.73;100.00;103225.09;5096571;27;45830;-73
2024/01/12 01:32:19;;;;;;;;;13.50;10.50;;;;;1.71;100.00;103205.88;5099858;27;45264;-73
2024/01/12 01:34:44;;;;;;;;;11.75;10.75;;;;;1.63;100.00;103187.44;5096820;27;46324;-73
2024/01/12 01:37:09;;;;;;;;;17.50;14.00;;;;;1.66;100.00;103176.19;5098901;27;45371;-73
2024/01/12 01:39:35;;;;;;;;;10.50;9.25;;;;;1.97;100.00;103224.00;5092363;27;45453;-73
2024/01/12 01:42:03;;;;;;;;;12.75;10.25;;;;;1.98;100.00;103217.06;5098674;27;45301;-73
2024/01/12 01:44:29;;;;;;;;;18.00;12.00;;;;;2.00;100.00;103223.22;5086701;27;46099;-73
2024/01/12 01:46:57;;;;;;;;;11.25;8.75;;;;;2.10;100.00;103227.81;5114976;27;45865;-73
2024/01/12 01:49:24;;;;;;;;;10.25;10.25;;;;;2.21;100.00;103230.72;5096826;27;45312;-74
2024/01/12 01:51:49;;;;;;;;;8.25;8.25;;;;;2.33;100.00;103231.91;5096939;27;45289;-73
2024/01/12 01:54:15;;;;;;;;;8.50;8.50;;;;;2.34;100.00;103231.09;5095933;27;46131;-73
2024/01/12 01:56:41;;;;;;;;;11.75;11.25;;;;;2.18;100.00;103181.06;5088615;27;45477;-73
2024/01/12 01:59:06;;;;;;;;;9.50;6.50;;;;;2.46;100.00;103215.72;5095259;27;45296;-73
2024/01/12 02:01:32;;;;;;;;;14.00;11.75;;;;;2.35;100.00;103188.47;5114684;27;45206;-73
2024/01/12 02:03:57;;;;;;;;;14.50;10.25;;;;;2.58;100.00;103212.53;5100412;27;45552;-73
2024/01/12 02:06:23;;;;;;;;;14.50;9.25;;;;;2.43;100.00;103175.59;5097775;27;45233;-73
2024/01/12 02:08:49;;;;;;;;;12.75;10.75;;;;;2.66;100.00;103210.09;5095668;27;45549;-73
2024/01/12 02:11:14;;;;;;;;;14.50;11.00;;;;;2.68;100.00;103198.84;5093030;27;45238;-74
2024/01/12 02:13:41;;;;;;;;;15.50;13.50;;;;;2.70;100.00;103202.38;5091146;27;46595;-73
2024/01/12 02:16:07;;;;;;;;;14.50;13.00;;;;;2.79;100.00;103212.13;5088282;27;45401;-73
2024/01/12 02:18:32;;;;;;;;;10.00;10.00;;;;;2.81;100.00;103213.97;5100388;27;45539;-73
2024/01/12 02:20:58;;;;;;;;;17.25;15.00;;;;;2.82;100.00;103193.91;5084386;27;45265;-73
2024/01/12 02:23:23;;;;;;;;;11.00;11.00;;;;;2.73;100.00;103185.88;5085908;27;45383;-73
2024/01/12 02:25:49;;;;;;;;;10.75;10.75;;;;;2.80;100.00;103196.50;5095875;27;45264;-73
2024/01/12 02:28:15;;;;;;;;;13.50;11.50;;;;;2.75;100.00;103187.66;5098669;27;45385;-73
2024/01/12 02:30:40;;;;;;;;;15.00;12.25;;;;;2.75;100.00;103190.28;5097249;27;45606;-73
2024/01/12 02:33:07;;;;;;;;;14.50;12.00;;;;;2.82;100.00;103201.75;5098391;27;46230;-74
2024/01/12 02:35:32;;;;;;;;;18.25;14.75;;;;;2.63;100.00;103174.31;5084281;27;45301;-73
2024/01/12 02:37:57;;;;;;;;;13.00;12.25;;;;;2.75;100.00;103187.66;5091091;27;45241;-73
2024/01/12 02:40:23;;;;;;;;;16.25;13.00;;;;;2.78;100.00;103190.34;5092033;27;45172;-74
2024/01/12 02:42:49;;;;;;;;;10.75;10.75;;;;;2.83;100.00;103195.69;5098186;27;46950;-73
2024/01/12 02:45:14;;;;;;;;;16.25;15.25;;;;;2.84;100.00;103200.97;5096526;27;45349;-74
2024/01/12 02:47:39;;;;;;;;;16.00;14.00;;;;;2.86;100.00;103200.97;5101826;27;45249;-73
2024/01/12 02:50:05;;;;;;;;;19.25;17.00;;;;;2.86;100.00;103200.97;5089830;27;45255;-73
2024/01/12 02:52:35;;;;;;;;;18.50;15.25;;;;;2.68;100.00;103157.06;5092376;27;45399;-73
2024/01/12 02:55:05;;;;;;;;;17.75;15.25;;;;;2.87;100.00;103200.16;5095590;27;45316;-74
2024/01/12 02:57:31;;;;;;;;;21.75;17.00;;;;;2.92;100.00;103199.38;5102119;27;45261;-74
2024/01/12 02:59:57;;;;;;;;;17.75;17.00;;;;;2.87;100.00;103187.97;5096976;27;45454;-73
2024/01/12 03:02:24;;;;;;;;;19.50;15.50;;;;;2.96;100.00;103198.63;5098388;27;47886;-73
2024/01/12 03:04:49;;;;;;;;;28.50;20.25;;;;;2.90;100.00;103189.75;5089241;27;45400;-73
2024/01/12 03:07:14;;;;;;;;;19.50;18.75;;;;;2.71;100.00;103151.91;5091958;27;45269;-73
2024/01/12 03:09:40;;;;;;;;;23.25;19.50;;;;;2.74;100.00;103164.13;5095739;27;45427;-73
2024/01/12 03:12:05;;;;;;;;;24.75;20.75;;;;;2.91;100.00;103186.31;5083064;27;46124;-73
2024/01/12 03:14:30;;;;;;;;;17.00;15.75;;;;;2.93;100.00;103179.38;5094404;27;45363;-73
2024/01/12 03:16:56;;;;;;;;;16.00;14.00;;;;;2.94;100.00;103186.38;5102539;27;45247;-73
2024/01/12 03:19:21;;;;;;;;;22.00;21.75;;;;;2.94;100.00;103194.22;5089508;27;45376;-73
2024/01/12 03:21:46;;;;;;;;;21.25;18.75;;;;;2.90;100.00;103184.53;5087922;27;45350;-73
2024/01/12 03:24:12;;;;;;;;;26.50;23.00;;;;;2.90;100.00;103181.91;5093628;27;45220;-73
2024/01/12 03:26:37;;;;;;;;;20.50;20.50;;;;;2.78;100.00;103153.75;5104768;27;45239;-73
2024/01/12 03:29:03;;;;;;;;;22.25;21.75;;;;;2.70;100.00;103149.22;5085540;27;45388;-73
2024/01/12 03:31:29;;;;;;;;;21.25;18.00;;;;;2.94;100.00;103189.88;5089937;27;45412;-73
2024/01/12 03:33:54;;;;;;;;;27.75;23.50;;;;;2.51;100.00;103113.97;5092424;27;45282;-73
2024/01/12 03:36:22;;;;;;;;;20.00;19.25;;;;;2.95;100.00;103177.66;5087744;27;45386;-73
2024/01/12 03:38:48;;;;;;;;;18.50;17.50;;;;;2.88;100.00;103167.94;5090022;27;45277;-73
2024/01/12 03:41:14;;;;;;;;;29.50;22.00;;;;;3.10;100.00;103191.09;5092781;27;45419;-73
2024/01/12 03:43:39;;;;;;;;;28.75;24.50;;;;;3.13;100.00;103191.16;5090779;27;45314;-74
2024/01/12 03:46:05;;;;;;;;;32.00;20.75;;;;;3.11;100.00;103169.31;5088426;27;45240;-73
2024/01/12 03:48:30;;;;;;;;;39.50;25.25;;;;;3.13;100.00;103163.28;5089687;27;45388;-73
2024/01/12 03:50:56;;;;;;;;;28.25;18.50;;;;;3.16;100.00;103152.00;5086847;27;45715;-73
2024/01/12 03:53:21;;;;;;;;;24.00;18.50;;;;;3.28;100.00;103178.38;5089582;27;45356;-74
2024/01/12 03:55:47;;;;;;;;;26.75;21.75;;;;;3.25;100.00;103166.97;5083750;27;45796;-73
2024/01/12 03:58:12;;;;;;;;;19.25;15.75;;;;;3.33;100.00;103170.66;5089161;27;45411;-73
2024/01/12 04:00:38;;;;;;;;;31.00;22.00;;;;;3.36;100.00;103175.94;5097009;27;45238;-73
2024/01/12 04:03:03;;;;;;;;;18.50;16.75;;;;;3.07;100.00;103118.72;5088533;27;45332;-73
2024/01/12 04:05:29;;;;;;;;;19.00;14.50;;;;;3.35;100.00;103172.44;5088607;27;45973;-73
2024/01/12 04:07:54;;;;;;;;;28.50;24.75;;;;;3.36;100.00;103174.22;5084312;27;45331;-74
2024/01/12 04:10:19;;;;;;;;;24.75;17.00;;;;;3.43;100.00;103178.72;5096549;27;47784;-73
2024/01/12 04:12:45;;;;;;;;;28.25;22.75;;;;;3.42;100.00;103161.25;5085967;27;45389;-73
2024/01/12 04:15:10;;;;;;;;;24.00;23.25;;;;;3.45;100.00;103165.66;5098448;27;45260;-73
2024/01/12 04:17:36;;;;;;;;;29.00;24.50;;;;;3.52;100.00;103167.53;5089702;27;45455;-73
2024/01/12 04:20:02;;;;;;;;;28.50;20.75;;;;;3.54;100.00;103161.47;5098547;27;47170;-73
2024/01/12 04:22:28;;;;;;;;;25.50;24.50;;;;;3.34;100.00;103128.81;5089929;27;45406;-73
2024/01/12 04:24:53;;;;;;;;;24.25;19.00;;;;;3.19;100.00;103107.59;5082805;27;45386;-73
2024/01/12 04:27:18;;;;;;;;;24.50;20.75;;;;;3.52;100.00;103150.13;5082101;27;45357;-73
2024/01/12 04:29:44;;;;;;;;;33.00;24.50;;;;;3.60;100.00;103158.97;5087649;27;46190;-73
2024/01/12 04:32:09;;;;;;;;;25.75;23.50;;;;;3.57;100.00;103156.31;5099452;27;45479;-73
2024/01/12 04:34:38;;;;;;;;;27.50;22.75;;;;;3.62;100.00;103172.09;5093781;27;45391;-73
2024/01/12 04:37:05;;;;;;;;;31.50;24.75;;;;;3.61;100.00;103166.00;5082154;27;45423;-73
2024/01/12 04:39:31;;;;;;;;;34.75;30.75;;;;;3.67;100.00;103183.53;5081168;27;48171;-73
2024/01/12 04:41:56;;;;;;;;;30.00;28.25;;;;;3.58;100.00;103154.56;5091584;27;45364;-73
2024/01/12 04:44:22;;;;;;;;;29.00;25.50;;;;;3.64;100.00;103167.78;5096219;27;45273;-73
2024/01/12 04:46:47;;;;;;;;;32.00;25.75;;;;;3.63;100.00;103153.81;5091688;27;45395;-73
2024/01/12 04:49:12;;;;;;;;;23.75;22.00;;;;;3.64;100.00;103166.03;5098973;27;46463;-73
2024/01/12 04:51:38;;;;;;;;;36.75;27.75;;;;;3.65;100.00;103157.34;5089096;27;45261;-73
2024/01/12 04:54:03;;;;;;;;;35.50;21.50;;;;;3.67;100.00;103163.47;5083141;27;45322;-73
2024/01/12 04:56:29;;;;;;;;;30.75;26.00;;;;;3.48;100.00;103134.31;5082068;27;45415;-73
2024/01/12 04:58:54;;;;;;;;;25.75;20.25;;;;;3.66;100.00;103153.00;5092774;27;46597;-69
2024/01/12 05:01:19;;;;;;;;;25.50;23.25;;;;;3.69;100.00;103153.06;5082133;27;45357;-69
2024/01/12 05:03:45;;;;;;;;;24.75;21.00;;;;;3.54;100.00;103122.25;5083625;27;45398;-69
2024/01/12 05:06:10;;;;;;;;;25.00;21.75;;;;;3.53;100.00;103122.22;5082145;27;45578;-69
2024/01/12 05:08:37;;;;;;;;;27.25;24.75;;;;;3.78;100.00;103149.72;5084749;27;45531;-69
2024/01/12 05:11:02;;;;;;;;;28.25;24.00;;;;;3.73;100.00;103149.63;5088978;27;45337;-69
2024/01/12 05:13:28;;;;;;;;;32.50;21.50;;;;;3.55;100.00;103104.81;5082189;27;45875;-69
2024/01/12 05:15:54;;;;;;;;;22.00;21.50;;;;;3.38;100.00;103064.38;5082038;27;45212;-69
2024/01/12 05:18:19;;;;;;;;;31.50;25.25;;;;;3.85;100.00;103156.84;5081217;27;45322;-69
2024/01/12 05:20:45;;;;;;;;;29.50;23.50;;;;;3.84;100.00;103149.81;5087444;27;45281;-69
2024/01/12 05:23:10;;;;;;;;;32.75;22.50;;;;;3.68;100.00;103132.97;5085690;27;45284;-70
2024/01/12 05:25:35;;;;;;;;;23.00;19.75;;;;;3.64;100.00;103113.72;5080331;27;45409;-69
2024/01/12 05:28:01;;;;;;;;;31.25;26.25;;;;;3.90;100.00;103149.94;5085306;27;46351;-70
2024/01/12 05:30:26;;;;;;;;;37.25;23.50;;;;;3.91;100.00;103144.72;5083416;27;45285;-69
2024/01/12 05:32:51;;;;;;;;;27.00;24.75;;;;;3.52;100.00;103076.88;5096130;27;45458;-69
2024/01/12 05:35:17;;;;;;;;;26.75;22.50;;;;;3.93;100.00;103143.00;5082469;27;45788;-69
2024/01/12 05:37:42;;;;;;;;;29.75;22.75;;;;;3.84;100.00;103124.53;5089917;27;46124;-69
2024/01/12 05:40:08;;;;;;;;;29.75;24.00;;;;;3.71;100.00;103098.13;5089304;27;45394;-69
2024/01/12 05:42:33;;;;;;;;;24.50;20.75;;;;;3.96;100.00;103139.59;5086542;27;45399;-69
2024/01/12 05:44:59;;;;;;;;;23.50;23.25;;;;;3.99;100.00;103140.50;5082863;27;45384;-69
2024/01/12 05:47:24;;;;;;;;;22.50;21.25;;;;;3.78;100.00;103102.59;5086348;27;46435;-69
2024/01/12 05:49:50;;;;;;;;;23.50;21.25;;;;;4.00;100.00;103152.75;5091536;27;45292;-69
2024/01/12 05:52:15;;;;;;;;;22.50;21.00;;;;;3.96;100.00;103137.81;5094949;27;45225;-69
2024/01/12 05:54:40;;;;;;;;;26.00;20.00;;;;;4.01;100.00;103145.78;5090504;27;45262;-69
2024/01/12 05:57:06;;;;;;;;;33.50;23.00;;;;;3.93;100.00;103129.91;5094771;27;45407;-69
2024/01/12 05:59:32;;;;;;;;;26.75;23.25;;;;;3.99;100.00;103142.25;5090832;27;45227;-69
2024/01/12 06:01:58;;;;;;;;;22.00;19.75;;;;;4.03;100.00;103142.31;5080325;27;45387;-69
2024/01/12 06:04:24;;;;;;;;;25.25;19.25;;;;;4.00;100.00;103141.38;5088358;27;45360;-69
2024/01/12 06:06:49;;;;;;;;;23.25;23.25;;;;;4.05;100.00;103148.47;5099051;27;47064;-69
2024/01/12 06:09:15;;;;;;;;;32.25;24.00;;;;;4.03;100.00;103146.66;5099878;27;45262;-69
2024/01/12 06:11:44;;;;;;;;;34.25;22.50;;;;;4.05;100.00;103147.59;5086918;27;45309;-69
2024/01/12 06:14:10;;;;;;;;;24.25;22.00;;;;;4.09;100.00;103162.50;5098515;27;45453;-69
2024/01/12 06:16:36;;;;;;;;;25.25;25.00;;;;;4.02;100.00;103150.16;5097866;27;45868;-69
2024/01/12 06:19:01;;;;;;;;;30.50;23.25;;;;;3.87;100.00;103118.47;5088293;27;45280;-69
2024/01/12 06:21:27;;;;;;;;;36.75;30.50;;;;;4.10;100.00;103156.41;5084808;27;45221;-69
2024/01/12 06:23:52;;;;;;;;;31.00;26.75;;;;;4.08;100.00;103165.97;5087535;27;45475;-69
2024/01/12 06:26:18;;;;;;;;;31.75;26.25;;;;;3.65;100.00;103091.06;5096888;27;47810;-69
2024/01/12 06:28:43;;;;;;;;;44.25;34.50;;;;;4.06;100.00;103165.03;5080770;27;45282;-69
2024/01/12 06:31:08;;;;;;;;;39.00;27.00;;;;;4.06;100.00;103163.31;5081632;27;45349;-69
2024/01/12 06:33:34;;;;;;;;;24.25;21.75;;;;;4.08;100.00;103171.22;5091877;27;45356;-69
2024/01/12 06:36:01;;;;;;;;;33.00;28.00;;;;;4.04;100.00;103153.69;5080752;27;46040;-69
2024/01/12 06:38:27;;;;;;;;;35.75;28.00;;;;;4.04;100.00;103167.66;5080430;27;45308;-69
2024/01/12 06:40:52;;;;;;;;;33.50;31.00;;;;;3.85;100.00;103126.31;5095368;27;45953;-69
2024/01/12 06:43:18;;;;;;;;;39.25;33.00;;;;;4.09;100.00;103178.22;5087795;27;45748;-69
2024/01/12 06:45:43;;;;;;;;;37.00;26.25;;;;;4.08;100.00;103166.88;5089901;27;46255;-69
2024/01/12 06:48:10;;;;;;;;;29.00;26.75;;;;;4.13;100.00;103166.91;5092412;27;45384;-69
2024/01/12 06:50:35;;;;;;;;;40.75;32.75;;;;;4.06;100.00;103154.56;5090473;27;45416;-69
2024/01/12 06:53:04;;;;;;;;;38.75;28.25;;;;;4.10;100.00;103170.38;5091278;27;45371;-69
2024/01/12 06:55:29;;;;;;;;;41.75;33.50;;;;;3.91;100.00;103134.25;5095808;27;47527;-69
2024/01/12 06:57:55;;;;;;;;;45.75;32.75;;;;;4.03;100.00;103154.53;5091507;27;45289;-69
2024/01/12 07:00:20;;;;;;;;;42.50;37.25;;;;;4.03;100.00;103157.13;5092474;27;45379;-69
2024/01/12 07:02:46;;;;;;;;;46.75;33.50;;;;;3.87;100.00;103123.69;5087220;27;45332;-69
2024/01/12 07:05:13;;;;;;;;;36.75;31.25;;;;;4.10;100.00;103165.13;5085916;27;46216;-69
2024/01/12 07:07:42;;;;;;;;;42.75;33.25;;;;;3.97;100.00;103142.22;5095625;27;45236;-69
2024/01/12 07:10:08;;;;;;;;;41.50;30.50;;;;;4.13;100.00;103167.81;5097107;27;45427;-69
2024/01/12 07:12:33;;;;;;;;;46.50;37.00;;;;;3.96;100.00;103136.97;5097218;27;45283;-69
2024/01/12 07:14:59;;;;;;;;;42.25;31.00;;;;;4.12;100.00;103167.81;5093551;27;45164;-69
2024/01/12 07:17:24;;;;;;;;;45.00;35.75;;;;;4.05;100.00;103164.19;5095324;27;45226;-69
2024/01/12 07:19:50;;;;;;;;;40.25;32.25;;;;;4.08;100.00;103171.22;5100365;27;45334;-69
2024/01/12 07:22:15;;;;;;;;;50.75;37.25;;;;;4.02;100.00;103161.53;5097326;27;45415;-69
2024/01/12 07:24:40;;;;;;;;;47.00;34.00;;;;;4.10;100.00;103170.38;5097156;27;45385;-69
2024/01/12 07:27:06;;;;;;;;;53.50;38.25;;;;;4.05;100.00;103161.56;5094383;27;45424;-69
2024/01/12 07:29:32;;;;;;;;;34.75;31.75;;;;;4.17;100.00;103187.97;5098400;27;45373;-69
2024/01/12 07:31:58;;;;;;;;;47.75;30.25;;;;;4.10;100.00;103169.50;5094550;27;45447;-69
2024/01/12 07:34:23;;;;;;;;;47.75;35.00;;;;;4.17;100.00;103190.59;5092202;27;45397;-68
2024/01/12 07:36:48;;;;;;;;;43.75;32.50;;;;;4.19;100.00;103182.72;5092531;27;45435;-67
2024/01/12 07:39:14;;;;;;;;;41.50;32.75;;;;;4.22;100.00;103186.28;5090099;27;45542;-67
2024/01/12 07:41:39;;;;;;;;;33.50;29.50;;;;;4.03;100.00;103154.53;5087910;27;45468;-67
2024/01/12 07:44:07;;;;;;;;;36.25;30.50;;;;;4.22;100.00;103190.66;5087832;27;45720;-67
2024/01/12 07:46:32;;;;;;;;;33.25;30.00;;;;;4.22;100.00;103185.44;5084715;27;45412;-68
2024/01/12 07:48:58;;;;;;;;;33.25;27.50;;;;;4.20;100.00;103182.78;5081678;27;45348;-67
2024/01/12 07:51:23;;;;;;;;;32.25;26.75;;;;;4.08;100.00;103156.38;5086530;27;45235;-68
2024/01/12 07:53:48;;;;;;;;;28.00;26.75;;;;;4.16;100.00;103178.34;5097984;27;45470;-67
2024/01/12 07:56:14;;;;;;;;;26.00;25.75;;;;;4.20;100.00;103182.78;5096560;27;45393;-67
2024/01/12 07:58:39;;;;;;;;;26.00;24.75;;;;;4.17;100.00;103190.59;5089560;27;45318;-68
2024/01/12 08:01:07;;;;;;;;;30.00;26.25;;;;;4.06;100.00;103155.47;5084399;27;45384;-67
2024/01/12 08:03:33;;;;;;;;;31.50;22.25;;;;;4.19;100.00;103185.34;5086216;27;46343;-68
2024/01/12 08:06:01;;;;;;;;;31.50;24.00;;;;;3.97;100.00;103143.94;5091155;27;45478;-67
2024/01/12 08:08:26;;;;;;;;;33.25;26.25;;;;;4.25;100.00;103182.88;5090375;27;45470;-67
2024/01/12 08:10:51;;;;;;;;;33.25;28.25;;;;;4.23;100.00;103181.94;5093481;27;45422;-67
2024/01/12 08:13:17;;;;;;;;;32.25;24.25;;;;;4.16;100.00;103170.47;5091725;27;45978;-68
2024/01/12 08:15:42;;;;;;;;;30.50;26.25;;;;;4.26;100.00;103186.34;5081454;27;45310;-67
2024/01/12 08:18:07;;;;;;;;;27.00;21.75;;;;;4.24;100.00;103172.34;5091844;27;45495;-67
2024/01/12 08:20:33;;;;;;;;;35.50;26.75;;;;;4.19;100.00;103162.66;5080501;28;45682;-67
2024/01/12 08:22:59;;;;;;;;;32.50;25.50;;;;;4.25;100.00;103176.75;5085937;27;45413;-68
2024/01/12 08:25:24;;;;;;;;;21.50;14.75;;;;;4.25;100.00;103167.16;5090865;27;45250;-67
2024/01/12 08:27:49;;;;;;;;;33.50;29.25;;;;;4.22;100.00;103164.47;5098247;27;45214;-67
2024/01/12 08:30:15;;;;;;;;;34.25;27.25;;;;;4.23;100.00;103155.75;5081674;27;45786;-67
2024/01/12 08:32:40;;;;;;;;;33.25;25.00;;;;;4.29;100.00;103168.94;5090062;27;46030;-67
2024/01/12 08:35:06;;;;;;;;;31.50;23.50;;;;;4.20;100.00;103153.06;5096300;27;45293;-67
2024/01/12 08:37:32;;;;;;;;;31.25;22.25;;;;;4.05;100.00;103134.50;5084406;27;45321;-67
2024/01/12 08:39:57;;;;;;;;;25.75;21.00;;;;;4.26;100.00;103162.75;5081206;27;45535;-67
2024/01/12 08:42:22;;;;;;;;;30.00;23.75;;;;;4.32;100.00;103176.84;5080708;27;46319;-67
2024/01/12 08:44:48;;;;;;;;;34.75;26.00;;;;;4.30;100.00;103169.81;5089180;27;45706;-67
2024/01/12 08:47:13;;;;;;;;;26.00;22.25;;;;;4.34;100.00;103169.03;5086001;27;45220;-67
2024/01/12 08:49:38;;;;;;;;;31.00;21.00;;;;;4.25;100.00;103167.16;5087360;27;45378;-67
2024/01/12 08:52:04;;;;;;;;;30.25;22.00;;;;;4.31;100.00;103174.22;5080744;27;46223;-67
2024/01/12 08:54:29;;;;;;;;;24.50;21.50;;;;;4.10;100.00;103149.44;5088614;27;45314;-67
2024/01/12 08:56:55;;;;;;;;;29.00;23.00;;;;;4.32;100.00;103179.47;5100459;27;45476;-67
2024/01/12 08:59:20;;;;;;;;;28.00;21.50;;;;;4.34;100.00;103182.13;5090258;27;45345;-67
2024/01/12 09:01:46;;;;;;;;;27.00;21.50;;;;;4.28;100.00;103171.56;5081415;27;47116;-68
2024/01/12 09:04:11;;;;;;;;;28.00;23.50;;;;;4.25;100.00;103168.88;5099113;27;45373;-67
2024/01/12 09:06:36;;;;;;;;;24.50;24.00;;;;;4.27;100.00;103185.50;5101452;27;45272;-68
2024/01/12 09:09:03;;;;;;;;;30.75;26.25;;;;;4.30;100.00;103193.41;5100023;27;45305;-67
2024/01/12 09:11:28;;;;;;;;;27.00;21.00;;;;;4.29;100.00;103186.41;5094187;27;46284;-67
2024/01/12 09:13:53;;;;;;;;;24.50;20.25;;;;;4.21;100.00;103181.03;5086465;27;45248;-67
2024/01/12 09:16:19;;;;;;;;;30.75;26.75;;;;;4.35;100.00;103204.84;5080836;27;45221;-67
2024/01/12 09:18:44;;;;;;;;;17.25;15.50;;;;;4.35;100.00;103199.63;5091279;27;45440;-67
2024/01/12 09:21:14;;;;;;;;;23.50;19.00;;;;;4.35;100.00;103213.56;5086308;27;46171;-67
2024/01/12 09:23:41;;;;;;;;;32.50;26.50;;;;;4.13;100.00;103159.06;5080639;27;45383;-67
2024/01/12 09:26:08;;;;;;;;;41.50;29.00;;;;;4.38;100.00;103203.16;5083700;27;45298;-67
2024/01/12 09:28:33;;;;;;;;;29.50;25.75;;;;;4.35;100.00;103195.22;5085137;27;45416;-66
2024/01/12 09:30:59;;;;;;;;;22.25;17.00;;;;;4.41;100.00;103204.94;5090430;27;46137;-66
2024/01/12 09:33:24;;;;;;;;;39.00;25.25;;;;;4.07;100.00;103149.38;5097068;27;45343;-66
2024/01/12 09:35:50;;;;;;;;;30.50;25.50;;;;;4.42;100.00;103207.56;5099519;27;45241;-67
2024/01/12 09:38:15;;;;;;;;;29.00;26.75;;;;;4.44;100.00;103215.47;5090262;27;46050;-67
2024/01/12 09:40:41;;;;;;;;;28.75;23.50;;;;;4.44;100.00;103210.25;5090082;27;46191;-67
2024/01/12 09:43:13;;;;;;;;;32.00;27.00;;;;;4.20;100.00;103197.59;5094252;27;45436;-67
2024/01/12 09:45:43;;;;;;;;;36.50;29.50;;;;;4.39;100.00;103223.25;5096762;27;45215;-67
2024/01/12 09:48:08;;;;;;;;;30.25;25.50;;;;;4.37;100.00;103219.72;5085635;27;45380;-67
2024/01/12 09:50:34;;;;;;;;;36.50;25.50;;;;;4.30;100.00;103207.38;5088653;27;45364;-67
2024/01/12 09:52:59;;;;;;;;;31.75;29.00;;;;;4.41;100.00;103229.41;5094264;27;45412;-67
2024/01/12 09:55:25;;;;;;;;;41.75;33.00;;;;;4.42;100.00;103232.88;5089804;27;45463;-67
2024/01/12 09:57:52;;;;;;;;;38.75;33.25;;;;;4.41;100.00;103245.13;5091899;27;45323;-68
2024/01/12 10:00:19;;;;;;;;;41.00;34.75;;;;;4.23;100.00;103213.38;5081081;27;45955;-67
2024/01/12 10:02:45;;;;;;;;;40.75;26.50;;;;;4.40;100.00;103234.63;5084491;27;45336;-67
2024/01/12 10:05:10;;;;;;;;;34.00;31.75;;;;;4.39;100.00;103233.72;5090443;27;45346;-67
2024/01/12 10:07:36;;;;;;;;;41.25;35.25;;;;;4.44;100.00;103241.69;5088930;27;45446;-66
2024/01/12 10:10:02;;;;;;;;;41.75;36.75;;;;;4.39;100.00;103236.34;5083052;27;45340;-66
2024/01/12 10:12:27;;;;;;;;;45.50;31.00;;;;;4.45;100.00;103241.69;5094467;27;45484;-67
2024/01/12 10:15:10;;;;;;;;;32.75;30.25;;;;;4.41;100.00;103241.63;5096541;27;45467;-66
2024/01/12 10:17:35;;;;;;;;;41.00;35.75;;;;;4.41;100.00;103242.50;5091755;27;45302;-66
2024/01/12 10:20:03;;;;;;;;;43.25;36.50;;;;;4.19;100.00;103201.06;5090871;27;46278;-67
2024/01/12 10:22:30;;;;;;;;;48.25;34.00;;;;;4.41;100.00;103245.13;5092772;27;45318;-67
2024/01/12 10:25:00;;;;;;;;;43.00;31.50;;;;;4.40;100.00;103251.22;5083005;27;45424;-67
2024/01/12 10:27:26;;;;;;;;;36.75;32.00;;;;;4.43;100.00;103267.00;5091527;27;45412;-67
2024/01/12 10:29:52;;;;;;;;;42.75;36.50;;;;;4.43;99.82;103253.88;5093284;27;46102;-67
2024/01/12 10:32:19;;;;;;;;;50.25;35.75;;;;;4.39;100.00;103261.66;5086863;27;45505;-67
2024/01/12 10:34:46;;;;;;;;;43.00;36.50;;;;;4.41;100.00;103268.72;5090759;27;45535;-67
2024/01/12 10:37:15;;;;;;;;;39.50;32.00;;;;;4.44;100.00;103265.25;5084996;27;45298;-67
2024/01/12 10:39:44;;;;;;;;;37.50;33.75;;;;;4.38;99.46;103263.41;5088053;27;46943;-67
2024/01/12 10:42:11;;;;;;;;;41.25;36.25;;;;;4.33;99.48;103240.59;5082529;27;45333;-67
2024/01/12 10:44:39;;;;;;;;;38.25;33.50;;;;;4.20;99.23;103218.56;5089843;27;45312;-67
2024/01/12 10:47:06;;;;;;;;;39.00;33.50;;;;;4.38;98.46;103252.06;5097242;27;45175;-67
2024/01/12 10:49:47;;;;;;;;;41.75;35.25;;;;;4.41;100.00;103242.50;5095953;27;46354;-67
2024/01/12 10:52:27;;;;;;;;;44.50;35.25;;;;;4.49;98.15;103258.34;5086400;27;45463;-67
2024/01/12 10:55:07;;;;;;;;;42.75;35.00;;;;;4.44;97.38;103245.19;5093148;27;45384;-66
2024/01/12 10:57:33;;;;;;;;;35.25;32.75;;;;;4.44;97.40;103242.56;5095144;27;45249;-67
2024/01/12 10:59:59;;;;;;;;;45.75;36.25;;;;;4.39;97.40;103240.69;5098132;27;46796;-67
2024/01/12 11:02:25;;;;;;;;;46.25;33.50;;;;;4.41;96.77;103244.25;5094838;27;45249;-67